Station: Munchen, ICAO: EDDM, Synop: Synop: 10866,
Koordinaten: 4821'00''N 01147'00''E, Hoehe: 453m, Entfernung: 9.74km
2018/02/22 07:20
EDDM 220720Z 04011KT 9999 OVC027 M04/M07 Q1015 NOSIG


Station: Erding, ICAO: ETSE, Synop: Synop: 10869,
Koordinaten: 4819'00''N 01157'00''E, Hoehe: 462m, Entfernung: 17.80km
2015/01/30 08:20
ETSE 300820Z 27013G23KT 1600 SHSNGS FEW006 BKN023 01/M01 Q0979 REGS YLO


Station: Ingolstadt, ICAO: ETSI, Synop: Synop: 10860,
Koordinaten: 4843'00''N 01132'00''E, Hoehe: 367m, Entfernung: 36.37km
2018/02/22 07:20
ETSI 220720Z 07013KT 9999 BKN080 M04/M08 Q1016 BLU BLU TEMPO BLU+


Station: Fuerstenfeldbruck, ICAO: ETSF, Synop: Synop: 10858,
Koordinaten: 4812'00''N 01116'00''E, Hoehe: 519m, Entfernung: 46.92km
2007/10/09 05:44
ETSF 090544Z 19001KT 1500 R27/2300D BR FEW300 04/04 Q1024 BLACKAMB AMB BECMG YLO


Station: Neuburg / Donau, ICAO: ETSN, Synop: Synop: 10853,
Koordinaten: 4843'00''N 01113'00''E, Hoehe: 380m, Entfernung: 52.44km
2018/02/22 07:20
ETSN 220720Z 04009KT 9999 FEW075 BKN095 M04/M08 Q1016 BLU BLU TEMPO WHT


Station: OBERPFAFFENHOFEN, ICAO: EDMO, Synop: ,
Koordinaten: 48 04 N 011 16 E, Hoehe: 600m, Entfernung: 56.63km
2018/02/22 07:20
EDMO 220720Z 06011KT 7000 -SN BKN015 M04/M06 Q1013


mehr Wetter
WetterInfo - adds.pl 2.6.003 DL3EL © 2004-2017 [202659]